sensor_id;sensor_type;location;lat;lon;timestamp;temperature;humidity
17845;DHT22;9047;53.486;10.218;2023-02-28T00:01:26;2.60;99.90
17845;DHT22;9047;53.486;10.218;2023-02-28T00:03:54;2.60;99.90
17845;DHT22;9047;53.486;10.218;2023-02-28T00:06:22;2.50;99.90
17845;DHT22;9047;53.486;10.218;2023-02-28T00:08:49;2.40;99.90
17845;DHT22;9047;53.486;10.218;2023-02-28T00:11:17;2.30;99.90
17845;DHT22;9047;53.486;10.218;2023-02-28T00:13:46;2.20;99.90
17845;DHT22;9047;53.486;10.218;2023-02-28T00:16:20;2.10;99.90
17845;DHT22;9047;53.486;10.218;2023-02-28T00:18:49;2.00;99.90
17845;DHT22;9047;53.486;10.218;2023-02-28T00:21:17;1.80;99.90
17845;DHT22;9047;53.486;10.218;2023-02-28T00:23:46;1.70;99.90
17845;DHT22;9047;53.486;10.218;2023-02-28T00:26:14;1.70;99.90
17845;DHT22;9047;53.486;10.218;2023-02-28T00:28:48;1.60;99.90
17845;DHT22;9047;53.486;10.218;2023-02-28T00:31:17;1.50;99.90
17845;DHT22;9047;53.486;10.218;2023-02-28T00:33:44;1.40;99.90
17845;DHT22;9047;53.486;10.218;2023-02-28T00:36:12;1.30;99.90
17845;DHT22;9047;53.486;10.218;2023-02-28T00:38:46;1.20;99.90
17845;DHT22;9047;53.486;10.218;2023-02-28T00:41:17;1.10;99.90
17845;DHT22;9047;53.486;10.218;2023-02-28T00:43:44;1.00;99.90
17845;DHT22;9047;53.486;10.218;2023-02-28T00:46:11;0.90;99.90
17845;DHT22;9047;53.486;10.218;2023-02-28T00:48:40;0.80;99.90
17845;DHT22;9047;53.486;10.218;2023-02-28T00:51:09;0.80;99.90
17845;DHT22;9047;53.486;10.218;2023-02-28T00:53:35;0.80;99.90
17845;DHT22;9047;53.486;10.218;2023-02-28T00:56:03;0.80;99.90
17845;DHT22;9047;53.486;10.218;2023-02-28T00:58:31;0.80;99.90
17845;DHT22;9047;53.486;10.218;2023-02-28T01:00:58;0.70;99.90
17845;DHT22;9047;53.486;10.218;2023-02-28T01:03:27;0.60;99.90
17845;DHT22;9047;53.486;10.218;2023-02-28T01:05:56;0.50;99.90
17845;DHT22;9047;53.486;10.218;2023-02-28T01:08:23;0.40;99.90
17845;DHT22;9047;53.486;10.218;2023-02-28T01:10:52;0.30;99.90
17845;DHT22;9047;53.486;10.218;2023-02-28T01:13:20;0.20;99.90
17845;DHT22;9047;53.486;10.218;2023-02-28T01:15:50;0.10;99.90
17845;DHT22;9047;53.486;10.218;2023-02-28T01:18:18;0.00;99.90
17845;DHT22;9047;53.486;10.218;2023-02-28T01:20:47;0.00;99.90
17845;DHT22;9047;53.486;10.218;2023-02-28T01:23:16;-0.10;99.90
17845;DHT22;9047;53.486;10.218;2023-02-28T01:25:43;-0.20;99.90
17845;DHT22;9047;53.486;10.218;2023-02-28T01:28:10;-0.20;99.90
17845;DHT22;9047;53.486;10.218;2023-02-28T01:30:37;-0.30;99.90
17845;DHT22;9047;53.486;10.218;2023-02-28T01:33:05;-0.30;99.90
17845;DHT22;9047;53.486;10.218;2023-02-28T01:35:36;-0.30;99.90
17845;DHT22;9047;53.486;10.218;2023-02-28T01:38:05;-0.40;99.90
17845;DHT22;9047;53.486;10.218;2023-02-28T01:40:35;-0.40;99.90
17845;DHT22;9047;53.486;10.218;2023-02-28T01:43:02;-0.50;99.90
17845;DHT22;9047;53.486;10.218;2023-02-28T01:45:31;-0.60;99.90
17845;DHT22;9047;53.486;10.218;2023-02-28T01:48:05;-0.60;99.90
17845;DHT22;9047;53.486;10.218;2023-02-28T01:50:37;-0.70;99.90
17845;DHT22;9047;53.486;10.218;2023-02-28T01:53:08;-0.70;99.90
17845;DHT22;9047;53.486;10.218;2023-02-28T01:55:46;-0.80;99.90
17845;DHT22;9047;53.486;10.218;2023-02-28T01:58:17;-0.80;99.90
17845;DHT22;9047;53.486;10.218;2023-02-28T02:00:44;-0.90;99.90
17845;DHT22;9047;53.486;10.218;2023-02-28T02:03:14;-0.90;99.90
17845;DHT22;9047;53.486;10.218;2023-02-28T02:05:44;-0.90;99.90
17845;DHT22;9047;53.486;10.218;2023-02-28T02:08:16;-1.00;99.90
17845;DHT22;9047;53.486;10.218;2023-02-28T02:10:48;-1.10;99.90
17845;DHT22;9047;53.486;10.218;2023-02-28T02:16:20;-1.10;99.90
17845;DHT22;9047;53.486;10.218;2023-02-28T02:18:53;-1.20;99.90
17845;DHT22;9047;53.486;10.218;2023-02-28T02:21:42;-1.00;99.90
17845;DHT22;9047;53.486;10.218;2023-02-28T02:24:44;-1.20;99.90
17845;DHT22;9047;53.486;10.218;2023-02-28T02:27:23;-1.30;99.90
17845;DHT22;9047;53.486;10.218;2023-02-28T02:30:21;-1.30;99.90
17845;DHT22;9047;53.486;10.218;2023-02-28T02:33:06;-1.30;99.90
17845;DHT22;9047;53.486;10.218;2023-02-28T02:35:42;-1.40;99.90
17845;DHT22;9047;53.486;10.218;2023-02-28T02:38:17;-1.40;99.90
17845;DHT22;9047;53.486;10.218;2023-02-28T02:40:50;-1.40;99.90
17845;DHT22;9047;53.486;10.218;2023-02-28T02:43:27;-1.40;99.90
17845;DHT22;9047;53.486;10.218;2023-02-28T02:45:57;-1.40;99.90
17845;DHT22;9047;53.486;10.218;2023-02-28T02:48:30;-1.50;99.90
17845;DHT22;9047;53.486;10.218;2023-02-28T02:51:03;-1.40;99.90
17845;DHT22;9047;53.486;10.218;2023-02-28T02:53:41;-1.50;99.90
17845;DHT22;9047;53.486;10.218;2023-02-28T02:56:11;-1.50;99.90
17845;DHT22;9047;53.486;10.218;2023-02-28T02:58:41;-1.50;99.90
17845;DHT22;9047;53.486;10.218;2023-02-28T03:01:14;-1.50;99.90
17845;DHT22;9047;53.486;10.218;2023-02-28T03:03:43;-1.50;99.90
17845;DHT22;9047;53.486;10.218;2023-02-28T03:06:15;-1.50;99.90
17845;DHT22;9047;53.486;10.218;2023-02-28T03:08:43;-1.50;99.90
17845;DHT22;9047;53.486;10.218;2023-02-28T03:11:13;-1.50;99.90
17845;DHT22;9047;53.486;10.218;2023-02-28T03:14:04;-1.50;99.90
17845;DHT22;9047;53.486;10.218;2023-02-28T03:16:39;-1.60;99.90
17845;DHT22;9047;53.486;10.218;2023-02-28T03:19:23;-1.60;99.90
17845;DHT22;9047;53.486;10.218;2023-02-28T03:22:07;-1.60;99.90
17845;DHT22;9047;53.486;10.218;2023-02-28T03:24:44;-1.70;99.90
17845;DHT22;9047;53.486;10.218;2023-02-28T03:27:20;-1.70;99.90
17845;DHT22;9047;53.486;10.218;2023-02-28T03:29:52;-1.70;99.90
17845;DHT22;9047;53.486;10.218;2023-02-28T03:32:27;-1.70;99.90
17845;DHT22;9047;53.486;10.218;2023-02-28T03:34:59;-1.70;99.90
17845;DHT22;9047;53.486;10.218;2023-02-28T03:37:31;-1.70;99.90
17845;DHT22;9047;53.486;10.218;2023-02-28T03:40:06;-1.70;99.90
17845;DHT22;9047;53.486;10.218;2023-02-28T03:42:38;-1.80;99.90
17845;DHT22;9047;53.486;10.218;2023-02-28T03:45:11;-1.80;99.90
17845;DHT22;9047;53.486;10.218;2023-02-28T03:47:43;-1.80;99.90
17845;DHT22;9047;53.486;10.218;2023-02-28T03:50:16;-1.80;99.90
17845;DHT22;9047;53.486;10.218;2023-02-28T03:52:49;-1.80;99.90
17845;DHT22;9047;53.486;10.218;2023-02-28T03:55:18;-1.80;99.90
17845;DHT22;9047;53.486;10.218;2023-02-28T03:57:53;-1.90;99.90
17845;DHT22;9047;53.486;10.218;2023-02-28T04:00:28;-1.90;99.90
17845;DHT22;9047;53.486;10.218;2023-02-28T04:02:56;-1.90;99.90
17845;DHT22;9047;53.486;10.218;2023-02-28T04:05:24;-1.90;99.90
17845;DHT22;9047;53.486;10.218;2023-02-28T04:07:53;-1.90;99.90
17845;DHT22;9047;53.486;10.218;2023-02-28T04:10:21;-1.90;99.90
17845;DHT22;9047;53.486;10.218;2023-02-28T04:12:48;-2.00;99.90
17845;DHT22;9047;53.486;10.218;2023-02-28T04:15:15;-2.00;99.90
17845;DHT22;9047;53.486;10.218;2023-02-28T04:17:42;-2.00;99.90
17845;DHT22;9047;53.486;10.218;2023-02-28T04:20:10;-2.00;99.90
17845;DHT22;9047;53.486;10.218;2023-02-28T04:22:39;-2.00;99.90
17845;DHT22;9047;53.486;10.218;2023-02-28T04:25:10;-2.10;99.90
17845;DHT22;9047;53.486;10.218;2023-02-28T04:27:51;-2.10;99.90
17845;DHT22;9047;53.486;10.218;2023-02-28T04:30:18;-2.10;99.90
17845;DHT22;9047;53.486;10.218;2023-02-28T04:32:45;-2.10;99.90
17845;DHT22;9047;53.486;10.218;2023-02-28T04:35:12;-2.20;99.90
17845;DHT22;9047;53.486;10.218;2023-02-28T04:37:40;-2.20;99.90
17845;DHT22;9047;53.486;10.218;2023-02-28T04:40:20;-2.20;99.90
17845;DHT22;9047;53.486;10.218;2023-02-28T04:42:49;-2.30;99.90
17845;DHT22;9047;53.486;10.218;2023-02-28T04:45:22;-2.30;99.90
17845;DHT22;9047;53.486;10.218;2023-02-28T04:47:49;-2.30;99.90
17845;DHT22;9047;53.486;10.218;2023-02-28T04:50:19;-2.30;99.90
17845;DHT22;9047;53.486;10.218;2023-02-28T04:52:49;-2.30;99.90
17845;DHT22;9047;53.486;10.218;2023-02-28T04:55:20;-2.30;99.90
17845;DHT22;9047;53.486;10.218;2023-02-28T04:57:47;-2.30;99.90
17845;DHT22;9047;53.486;10.218;2023-02-28T05:00:16;-2.30;99.90
17845;DHT22;9047;53.486;10.218;2023-02-28T05:02:46;-2.30;99.90
17845;DHT22;9047;53.486;10.218;2023-02-28T05:05:21;-2.30;99.90
17845;DHT22;9047;53.486;10.218;2023-02-28T05:07:51;-2.30;99.90
17845;DHT22;9047;53.486;10.218;2023-02-28T05:10:24;-2.30;99.90
17845;DHT22;9047;53.486;10.218;2023-02-28T05:12:53;-2.30;99.90
17845;DHT22;9047;53.486;10.218;2023-02-28T05:15:20;-2.20;99.90
17845;DHT22;9047;53.486;10.218;2023-02-28T05:17:47;-2.30;99.90
17845;DHT22;9047;53.486;10.218;2023-02-28T05:20:15;-2.30;99.90
17845;DHT22;9047;53.486;10.218;2023-02-28T05:22:43;-2.10;99.90
17845;DHT22;9047;53.486;10.218;2023-02-28T05:25:22;-2.30;99.90
17845;DHT22;9047;53.486;10.218;2023-02-28T05:27:50;-2.20;99.90
17845;DHT22;9047;53.486;10.218;2023-02-28T05:30:19;-2.20;99.90
17845;DHT22;9047;53.486;10.218;2023-02-28T05:32:53;-2.20;99.90
17845;DHT22;9047;53.486;10.218;2023-02-28T05:35:21;-2.30;99.90
17845;DHT22;9047;53.486;10.218;2023-02-28T05:37:49;-2.30;99.90
17845;DHT22;9047;53.486;10.218;2023-02-28T05:40:16;-2.30;99.90
17845;DHT22;9047;53.486;10.218;2023-02-28T05:42:47;-2.20;99.90
17845;DHT22;9047;53.486;10.218;2023-02-28T05:45:16;-2.30;99.90
17845;DHT22;9047;53.486;10.218;2023-02-28T05:47:43;-2.30;99.90
17845;DHT22;9047;53.486;10.218;2023-02-28T05:50:11;-2.40;99.90
17845;DHT22;9047;53.486;10.218;2023-02-28T05:52:39;-2.40;99.90
17845;DHT22;9047;53.486;10.218;2023-02-28T05:55:09;-2.50;99.90
17845;DHT22;9047;53.486;10.218;2023-02-28T05:57:41;-2.50;99.90
17845;DHT22;9047;53.486;10.218;2023-02-28T06:00:13;-2.60;99.90
17845;DHT22;9047;53.486;10.218;2023-02-28T06:02:44;-2.60;99.90
17845;DHT22;9047;53.486;10.218;2023-02-28T06:05:14;-2.60;99.90
17845;DHT22;9047;53.486;10.218;2023-02-28T06:07:43;-2.70;99.90
17845;DHT22;9047;53.486;10.218;2023-02-28T06:10:11;-2.60;99.90
17845;DHT22;9047;53.486;10.218;2023-02-28T06:12:38;-2.60;99.90
17845;DHT22;9047;53.486;10.218;2023-02-28T06:15:12;-2.70;99.90
17845;DHT22;9047;53.486;10.218;2023-02-28T06:17:40;-2.70;99.90
17845;DHT22;9047;53.486;10.218;2023-02-28T06:20:08;-2.60;99.90
17845;DHT22;9047;53.486;10.218;2023-02-28T06:22:39;-2.60;99.90
17845;DHT22;9047;53.486;10.218;2023-02-28T06:25:09;-2.60;99.90
17845;DHT22;9047;53.486;10.218;2023-02-28T06:27:37;-2.60;99.90
17845;DHT22;9047;53.486;10.218;2023-02-28T06:30:06;-2.60;99.90
17845;DHT22;9047;53.486;10.218;2023-02-28T06:32:37;-2.50;99.90
17845;DHT22;9047;53.486;10.218;2023-02-28T06:35:05;-2.50;99.90
17845;DHT22;9047;53.486;10.218;2023-02-28T06:37:37;-2.50;99.90
17845;DHT22;9047;53.486;10.218;2023-02-28T06:40:05;-2.40;99.90
17845;DHT22;9047;53.486;10.218;2023-02-28T06:42:34;-2.20;99.90
17845;DHT22;9047;53.486;10.218;2023-02-28T06:45:02;-2.10;99.90
17845;DHT22;9047;53.486;10.218;2023-02-28T06:47:37;-1.90;99.90
17845;DHT22;9047;53.486;10.218;2023-02-28T06:50:14;-2.00;99.90
17845;DHT22;9047;53.486;10.218;2023-02-28T06:52:43;-1.90;99.90
17845;DHT22;9047;53.486;10.218;2023-02-28T06:55:10;-1.90;99.90
17845;DHT22;9047;53.486;10.218;2023-02-28T06:57:37;-1.70;99.90
17845;DHT22;9047;53.486;10.218;2023-02-28T07:00:11;-1.60;99.90
17845;DHT22;9047;53.486;10.218;2023-02-28T07:02:44;-1.50;99.90
17845;DHT22;9047;53.486;10.218;2023-02-28T07:05:14;-1.30;99.90
17845;DHT22;9047;53.486;10.218;2023-02-28T07:07:42;-1.20;99.90
17845;DHT22;9047;53.486;10.218;2023-02-28T07:10:12;-1.10;99.90
17845;DHT22;9047;53.486;10.218;2023-02-28T07:12:42;-1.20;99.90
17845;DHT22;9047;53.486;10.218;2023-02-28T07:15:11;-1.10;99.90
17845;DHT22;9047;53.486;10.218;2023-02-28T07:17:39;-1.10;99.90
17845;DHT22;9047;53.486;10.218;2023-02-28T07:20:11;-1.10;99.90
17845;DHT22;9047;53.486;10.218;2023-02-28T07:22:39;-1.00;99.90
17845;DHT22;9047;53.486;10.218;2023-02-28T07:25:08;-1.00;99.90
17845;DHT22;9047;53.486;10.218;2023-02-28T07:27:38;-0.90;99.90
17845;DHT22;9047;53.486;10.218;2023-02-28T07:30:06;-0.80;99.90
17845;DHT22;9047;53.486;10.218;2023-02-28T07:32:39;-0.70;99.90
17845;DHT22;9047;53.486;10.218;2023-02-28T07:35:19;-0.70;99.90
17845;DHT22;9047;53.486;10.218;2023-02-28T07:37:46;-0.60;99.90
17845;DHT22;9047;53.486;10.218;2023-02-28T07:40:17;-0.50;99.90
17845;DHT22;9047;53.486;10.218;2023-02-28T07:42:45;-0.40;99.90
17845;DHT22;9047;53.486;10.218;2023-02-28T07:45:13;-0.30;99.90
17845;DHT22;9047;53.486;10.218;2023-02-28T07:47:54;-0.20;99.90
17845;DHT22;9047;53.486;10.218;2023-02-28T07:50:28;-0.10;99.90
17845;DHT22;9047;53.486;10.218;2023-02-28T07:52:58;0.00;99.90
17845;DHT22;9047;53.486;10.218;2023-02-28T07:55:26;0.10;99.90
17845;DHT22;9047;53.486;10.218;2023-02-28T07:57:53;0.10;99.90
17845;DHT22;9047;53.486;10.218;2023-02-28T08:00:25;0.40;99.90
17845;DHT22;9047;53.486;10.218;2023-02-28T08:03:07;0.30;99.90
17845;DHT22;9047;53.486;10.218;2023-02-28T08:05:50;0.40;99.90
17845;DHT22;9047;53.486;10.218;2023-02-28T08:08:18;0.50;99.90
17845;DHT22;9047;53.486;10.218;2023-02-28T08:10:47;0.70;99.90
17845;DHT22;9047;53.486;10.218;2023-02-28T08:13:15;0.60;99.90
17845;DHT22;9047;53.486;10.218;2023-02-28T08:15:57;0.80;99.90
17845;DHT22;9047;53.486;10.218;2023-02-28T08:18:39;0.80;99.90
17845;DHT22;9047;53.486;10.218;2023-02-28T08:21:13;0.90;99.90
17845;DHT22;9047;53.486;10.218;2023-02-28T08:23:41;1.10;99.90
17845;DHT22;9047;53.486;10.218;2023-02-28T08:26:08;1.20;99.90
17845;DHT22;9047;53.486;10.218;2023-02-28T08:28:36;1.30;99.90
17845;DHT22;9047;53.486;10.218;2023-02-28T08:31:19;1.30;99.90
17845;DHT22;9047;53.486;10.218;2023-02-28T08:34:00;1.50;99.90
17845;DHT22;9047;53.486;10.218;2023-02-28T08:36:29;1.60;99.90
17845;DHT22;9047;53.486;10.218;2023-02-28T08:38:57;1.60;99.90
17845;DHT22;9047;53.486;10.218;2023-02-28T08:41:31;1.70;99.90
17845;DHT22;9047;53.486;10.218;2023-02-28T08:44:00;1.80;99.90
17845;DHT22;9047;53.486;10.218;2023-02-28T08:46:28;2.00;99.90
17845;DHT22;9047;53.486;10.218;2023-02-28T08:48:59;2.10;99.90
17845;DHT22;9047;53.486;10.218;2023-02-28T08:51:39;2.20;99.90
17845;DHT22;9047;53.486;10.218;2023-02-28T08:54:08;2.30;99.90
17845;DHT22;9047;53.486;10.218;2023-02-28T08:56:45;2.50;99.90
17845;DHT22;9047;53.486;10.218;2023-02-28T08:59:13;2.70;99.90
17845;DHT22;9047;53.486;10.218;2023-02-28T09:01:40;2.70;99.90
17845;DHT22;9047;53.486;10.218;2023-02-28T09:04:09;2.80;99.90
17845;DHT22;9047;53.486;10.218;2023-02-28T09:06:46;2.80;99.90
17845;DHT22;9047;53.486;10.218;2023-02-28T09:09:27;3.10;99.90
17845;DHT22;9047;53.486;10.218;2023-02-28T09:11:58;3.00;99.90
17845;DHT22;9047;53.486;10.218;2023-02-28T09:14:27;3.10;99.90
17845;DHT22;9047;53.486;10.218;2023-02-28T09:17:08;3.20;99.90
17845;DHT22;9047;53.486;10.218;2023-02-28T09:19:50;3.30;99.90
17845;DHT22;9047;53.486;10.218;2023-02-28T09:22:34;3.40;99.90
17845;DHT22;9047;53.486;10.218;2023-02-28T09:25:03;3.50;99.90
17845;DHT22;9047;53.486;10.218;2023-02-28T09:27:33;3.60;99.90
17845;DHT22;9047;53.486;10.218;2023-02-28T09:30:02;3.80;99.90
17845;DHT22;9047;53.486;10.218;2023-02-28T09:32:31;3.90;99.90
17845;DHT22;9047;53.486;10.218;2023-02-28T09:35:13;4.00;99.90
17845;DHT22;9047;53.486;10.218;2023-02-28T09:38:03;4.10;99.90
17845;DHT22;9047;53.486;10.218;2023-02-28T09:40:52;4.30;99.90
17845;DHT22;9047;53.486;10.218;2023-02-28T09:43:33;4.40;99.90
17845;DHT22;9047;53.486;10.218;2023-02-28T09:46:14;4.60;99.90
17845;DHT22;9047;53.486;10.218;2023-02-28T09:48:50;4.70;99.90
17845;DHT22;9047;53.486;10.218;2023-02-28T09:51:29;4.80;99.90
17845;DHT22;9047;53.486;10.218;2023-02-28T09:54:10;4.90;99.90
17845;DHT22;9047;53.486;10.218;2023-02-28T09:56:51;4.90;99.90
17845;DHT22;9047;53.486;10.218;2023-02-28T09:59:36;5.20;99.90
17845;DHT22;9047;53.486;10.218;2023-02-28T10:02:21;5.30;99.90
17845;DHT22;9047;53.486;10.218;2023-02-28T10:04:58;5.40;99.90
17845;DHT22;9047;53.486;10.218;2023-02-28T10:07:39;5.50;99.90
17845;DHT22;9047;53.486;10.218;2023-02-28T10:10:31;5.70;99.90
17845;DHT22;9047;53.486;10.218;2023-02-28T10:13:05;5.80;99.90
17845;DHT22;9047;53.486;10.218;2023-02-28T10:15:35;5.90;99.90
17845;DHT22;9047;53.486;10.218;2023-02-28T10:18:06;6.00;99.90
17845;DHT22;9047;53.486;10.218;2023-02-28T10:20:41;6.20;99.90
17845;DHT22;9047;53.486;10.218;2023-02-28T10:23:21;6.30;99.90
17845;DHT22;9047;53.486;10.218;2023-02-28T10:25:55;6.40;99.90
17845;DHT22;9047;53.486;10.218;2023-02-28T10:28:32;6.50;99.90
17845;DHT22;9047;53.486;10.218;2023-02-28T10:30:59;6.60;99.90
17845;DHT22;9047;53.486;10.218;2023-02-28T10:33:30;6.80;99.90
17845;DHT22;9047;53.486;10.218;2023-02-28T10:36:00;6.90;99.90
17845;DHT22;9047;53.486;10.218;2023-02-28T10:38:33;6.80;99.90
17845;DHT22;9047;53.486;10.218;2023-02-28T10:41:08;6.90;99.90
17845;DHT22;9047;53.486;10.218;2023-02-28T10:43:38;6.90;99.90
17845;DHT22;9047;53.486;10.218;2023-02-28T10:46:13;7.00;99.90
17845;DHT22;9047;53.486;10.218;2023-02-28T10:49:00;7.10;99.90
17845;DHT22;9047;53.486;10.218;2023-02-28T10:51:35;7.10;99.90
17845;DHT22;9047;53.486;10.218;2023-02-28T10:54:04;7.20;99.90
17845;DHT22;9047;53.486;10.218;2023-02-28T10:56:35;7.20;99.90
17845;DHT22;9047;53.486;10.218;2023-02-28T10:59:03;7.20;99.90
17845;DHT22;9047;53.486;10.218;2023-02-28T11:01:48;7.30;99.90
17845;DHT22;9047;53.486;10.218;2023-02-28T11:04:23;7.20;99.90
17845;DHT22;9047;53.486;10.218;2023-02-28T11:07:01;7.40;99.90
17845;DHT22;9047;53.486;10.218;2023-02-28T11:09:32;7.50;99.90
17845;DHT22;9047;53.486;10.218;2023-02-28T11:12:08;7.60;99.90
17845;DHT22;9047;53.486;10.218;2023-02-28T11:14:50;7.70;99.90
17845;DHT22;9047;53.486;10.218;2023-02-28T11:17:24;7.80;99.90
17845;DHT22;9047;53.486;10.218;2023-02-28T11:19:58;7.90;99.90
17845;DHT22;9047;53.486;10.218;2023-02-28T11:22:32;7.90;99.90
17845;DHT22;9047;53.486;10.218;2023-02-28T11:25:07;7.90;99.90
17845;DHT22;9047;53.486;10.218;2023-02-28T11:28:02;7.90;99.90
17845;DHT22;9047;53.486;10.218;2023-02-28T11:30:39;7.90;99.90
17845;DHT22;9047;53.486;10.218;2023-02-28T11:33:26;7.90;99.90
17845;DHT22;9047;53.486;10.218;2023-02-28T11:35:57;8.00;99.90
17845;DHT22;9047;53.486;10.218;2023-02-28T11:38:26;8.10;99.90
17845;DHT22;9047;53.486;10.218;2023-02-28T11:41:09;8.10;99.90
17845;DHT22;9047;53.486;10.218;2023-02-28T11:44:03;8.20;99.90
17845;DHT22;9047;53.486;10.218;2023-02-28T11:47:10;8.30;99.90
17845;DHT22;9047;53.486;10.218;2023-02-28T11:49:47;8.40;99.90
17845;DHT22;9047;53.486;10.218;2023-02-28T11:52:22;8.40;99.90
17845;DHT22;9047;53.486;10.218;2023-02-28T11:55:06;8.50;99.90
17845;DHT22;9047;53.486;10.218;2023-02-28T11:57:45;8.50;99.90
17845;DHT22;9047;53.486;10.218;2023-02-28T12:00:29;8.60;99.90
17845;DHT22;9047;53.486;10.218;2023-02-28T12:03:06;8.60;99.90
17845;DHT22;9047;53.486;10.218;2023-02-28T12:05:41;8.70;99.90
17845;DHT22;9047;53.486;10.218;2023-02-28T12:08:24;8.80;99.90
17845;DHT22;9047;53.486;10.218;2023-02-28T12:11:02;8.70;99.90
17845;DHT22;9047;53.486;10.218;2023-02-28T12:13:43;8.70;99.70
17845;DHT22;9047;53.486;10.218;2023-02-28T12:19:40;8.80;99.40
17845;DHT22;9047;53.486;10.218;2023-02-28T12:22:32;8.80;99.40
17845;DHT22;9047;53.486;10.218;2023-02-28T12:25:21;8.80;99.10
17845;DHT22;9047;53.486;10.218;2023-02-28T12:27:49;8.80;99.90
17845;DHT22;9047;53.486;10.218;2023-02-28T12:30:22;8.90;99.50
17845;DHT22;9047;53.486;10.218;2023-02-28T12:32:54;8.90;99.20
17845;DHT22;9047;53.486;10.218;2023-02-28T12:35:34;9.00;98.90
17845;DHT22;9047;53.486;10.218;2023-02-28T12:38:09;9.10;98.90
17845;DHT22;9047;53.486;10.218;2023-02-28T12:40:44;9.10;99.00
17845;DHT22;9047;53.486;10.218;2023-02-28T12:43:17;9.10;99.00
17845;DHT22;9047;53.486;10.218;2023-02-28T12:45:59;9.10;98.70
17845;DHT22;9047;53.486;10.218;2023-02-28T12:48:37;9.20;98.80
17845;DHT22;9047;53.486;10.218;2023-02-28T12:51:08;9.20;98.90
17845;DHT22;9047;53.486;10.218;2023-02-28T12:53:49;9.30;98.60
17845;DHT22;9047;53.486;10.218;2023-02-28T12:56:24;9.20;98.90
17845;DHT22;9047;53.486;10.218;2023-02-28T12:59:01;9.30;98.70
17845;DHT22;9047;53.486;10.218;2023-02-28T13:01:46;9.30;99.00
17845;DHT22;9047;53.486;10.218;2023-02-28T13:07:59;9.40;98.20
17845;DHT22;9047;53.486;10.218;2023-02-28T13:10:42;9.30;98.30
17845;DHT22;9047;53.486;10.218;2023-02-28T13:13:15;9.30;98.20
17845;DHT22;9047;53.486;10.218;2023-02-28T13:15:59;9.30;97.90
17845;DHT22;9047;53.486;10.218;2023-02-28T13:18:34;9.20;98.10
17845;DHT22;9047;53.486;10.218;2023-02-28T13:21:06;9.30;98.10
17845;DHT22;9047;53.486;10.218;2023-02-28T13:23:59;9.20;98.20
17845;DHT22;9047;53.486;10.218;2023-02-28T13:29:33;9.20;98.00
17845;DHT22;9047;53.486;10.218;2023-02-28T13:32:34;9.20;98.20
17845;DHT22;9047;53.486;10.218;2023-02-28T13:35:35;9.20;97.80
17845;DHT22;9047;53.486;10.218;2023-02-28T13:38:17;9.20;97.70
17845;DHT22;9047;53.486;10.218;2023-02-28T13:40:47;9.10;97.60
17845;DHT22;9047;53.486;10.218;2023-02-28T13:43:16;9.10;97.50
17845;DHT22;9047;53.486;10.218;2023-02-28T13:46:06;9.10;98.20
17845;DHT22;9047;53.486;10.218;2023-02-28T13:48:35;9.10;98.20
17845;DHT22;9047;53.486;10.218;2023-02-28T13:54:27;9.10;97.90
17845;DHT22;9047;53.486;10.218;2023-02-28T13:57:24;9.10;98.20
17845;DHT22;9047;53.486;10.218;2023-02-28T14:00:07;9.20;97.90
17845;DHT22;9047;53.486;10.218;2023-02-28T14:05:36;9.20;97.30
17845;DHT22;9047;53.486;10.218;2023-02-28T14:08:06;9.10;97.80
17845;DHT22;9047;53.486;10.218;2023-02-28T14:10:43;9.10;97.90
17845;DHT22;9047;53.486;10.218;2023-02-28T14:13:37;9.10;97.50
17845;DHT22;9047;53.486;10.218;2023-02-28T14:16:14;9.00;97.70
17845;DHT22;9047;53.486;10.218;2023-02-28T14:18:47;9.00;97.60
17845;DHT22;9047;53.486;10.218;2023-02-28T14:21:23;9.00;97.90
17845;DHT22;9047;53.486;10.218;2023-02-28T14:24:22;8.90;98.10
17845;DHT22;9047;53.486;10.218;2023-02-28T14:27:22;8.90;98.30
17845;DHT22;9047;53.486;10.218;2023-02-28T14:30:09;8.90;98.30
17845;DHT22;9047;53.486;10.218;2023-02-28T14:32:47;9.00;98.40
17845;DHT22;9047;53.486;10.218;2023-02-28T14:35:42;9.00;98.60
17845;DHT22;9047;53.486;10.218;2023-02-28T14:38:18;9.00;98.70
17845;DHT22;9047;53.486;10.218;2023-02-28T14:40:52;9.00;97.80
17845;DHT22;9047;53.486;10.218;2023-02-28T14:43:24;9.00;98.20
17845;DHT22;9047;53.486;10.218;2023-02-28T14:45:56;9.00;98.20
17845;DHT22;9047;53.486;10.218;2023-02-28T14:48:26;9.40;98.10
17845;DHT22;9047;53.486;10.218;2023-02-28T14:50:57;9.90;97.50
17845;DHT22;9047;53.486;10.218;2023-02-28T14:53:29;10.50;96.60
17845;DHT22;9047;53.486;10.218;2023-02-28T14:55:57;10.80;96.10
17845;DHT22;9047;53.486;10.218;2023-02-28T14:58:28;10.90;95.70
17845;DHT22;9047;53.486;10.218;2023-02-28T15:01:00;11.00;95.80
17845;DHT22;9047;53.486;10.218;2023-02-28T15:03:34;11.20;95.60
17845;DHT22;9047;53.486;10.218;2023-02-28T15:06:04;11.20;95.20
17845;DHT22;9047;53.486;10.218;2023-02-28T15:08:32;11.00;95.00
17845;DHT22;9047;53.486;10.218;2023-02-28T15:11:04;10.70;95.90
17845;DHT22;9047;53.486;10.218;2023-02-28T15:13:39;10.40;96.00
17845;DHT22;9047;53.486;10.218;2023-02-28T15:16:10;10.10;96.20
17845;DHT22;9047;53.486;10.218;2023-02-28T15:18:47;9.80;96.40
17845;DHT22;9047;53.486;10.218;2023-02-28T15:21:17;9.60;96.70
17845;DHT22;9047;53.486;10.218;2023-02-28T15:23:51;9.20;96.80
17845;DHT22;9047;53.486;10.218;2023-02-28T15:26:20;9.00;97.30
17845;DHT22;9047;53.486;10.218;2023-02-28T15:28:51;8.70;97.50
17845;DHT22;9047;53.486;10.218;2023-02-28T15:31:23;8.70;97.90
17845;DHT22;9047;53.486;10.218;2023-02-28T15:33:56;8.50;97.70
17845;DHT22;9047;53.486;10.218;2023-02-28T15:36:26;8.40;98.00
17845;DHT22;9047;53.486;10.218;2023-02-28T15:38:55;8.30;97.90
17845;DHT22;9047;53.486;10.218;2023-02-28T15:41:25;8.20;98.10
17845;DHT22;9047;53.486;10.218;2023-02-28T15:44:14;8.10;98.50
17845;DHT22;9047;53.486;10.218;2023-02-28T15:46:53;7.90;98.60
17845;DHT22;9047;53.486;10.218;2023-02-28T15:49:25;7.90;98.60
17845;DHT22;9047;53.486;10.218;2023-02-28T15:51:58;7.70;98.90
17845;DHT22;9047;53.486;10.218;2023-02-28T15:54:30;7.70;99.20
17845;DHT22;9047;53.486;10.218;2023-02-28T15:57:04;7.60;99.50
17845;DHT22;9047;53.486;10.218;2023-02-28T15:59:36;7.50;99.90
17845;DHT22;9047;53.486;10.218;2023-02-28T16:02:22;7.30;99.90
17845;DHT22;9047;53.486;10.218;2023-02-28T16:07:54;7.10;99.90
17845;DHT22;9047;53.486;10.218;2023-02-28T16:10:22;7.00;99.90
17845;DHT22;9047;53.486;10.218;2023-02-28T16:12:53;6.80;99.90
17845;DHT22;9047;53.486;10.218;2023-02-28T16:15:24;6.70;99.90
17845;DHT22;9047;53.486;10.218;2023-02-28T16:17:52;6.70;99.90
17845;DHT22;9047;53.486;10.218;2023-02-28T16:20:28;6.60;99.90
17845;DHT22;9047;53.486;10.218;2023-02-28T16:22:56;6.40;99.90
17845;DHT22;9047;53.486;10.218;2023-02-28T16:25:33;6.30;99.90
17845;DHT22;9047;53.486;10.218;2023-02-28T16:28:01;6.20;99.90
17845;DHT22;9047;53.486;10.218;2023-02-28T16:30:29;6.10;99.90
17845;DHT22;9047;53.486;10.218;2023-02-28T16:32:58;5.90;99.90
17845;DHT22;9047;53.486;10.218;2023-02-28T16:35:27;5.70;99.90
17845;DHT22;9047;53.486;10.218;2023-02-28T16:37:57;5.60;99.90
17845;DHT22;9047;53.486;10.218;2023-02-28T16:40:38;5.50;99.90
17845;DHT22;9047;53.486;10.218;2023-02-28T16:43:09;5.30;99.90